createdAt,value
2022-11-06T00:00:38.222Z,-1.70
2022-11-06T00:03:08.156Z,-1.72
2022-11-06T00:05:59.893Z,-1.70
2022-11-06T00:08:31.564Z,-1.70
2022-11-06T00:11:00.840Z,-1.70
2022-11-06T00:13:30.373Z,-1.67
2022-11-06T00:16:04.178Z,-1.61
2022-11-06T00:18:34.275Z,-1.61
2022-11-06T00:21:14.351Z,-1.61
2022-11-06T00:23:44.272Z,-1.58
2022-11-06T00:26:15.603Z,-1.60
2022-11-06T00:28:44.871Z,-1.50
2022-11-06T00:31:17.156Z,-1.48
2022-11-06T00:33:46.519Z,-1.45
2022-11-06T00:36:19.312Z,-1.45
2022-11-06T00:38:48.519Z,-1.45
2022-11-06T00:41:18.266Z,-1.39
2022-11-06T00:43:52.539Z,-1.32
2022-11-06T00:46:21.843Z,-1.28
2022-11-06T00:48:50.904Z,-1.20
2022-11-06T00:51:22.640Z,-1.13
2022-11-06T00:53:56.035Z,-1.05
2022-11-06T00:56:25.546Z,-1.03
2022-11-06T00:58:54.847Z,-0.98
2022-11-06T01:01:28.792Z,-0.89
2022-11-06T01:04:07.499Z,-0.92
2022-11-06T01:06:40.337Z,-0.88
2022-11-06T01:09:10.563Z,-0.86
2022-11-06T01:12:11.798Z,-0.84
2022-11-06T01:14:33.885Z,-0.79
2022-11-06T01:17:02.688Z,-0.80
2022-11-06T01:19:31.479Z,-0.75
2022-11-06T01:22:00.304Z,-0.78
2022-11-06T01:24:30.065Z,-0.72
2022-11-06T01:29:48.360Z,-0.75
2022-11-06T01:32:17.155Z,-0.72
2022-11-06T01:34:47.450Z,-0.71
2022-11-06T01:37:16.182Z,-0.70
2022-11-06T01:39:45.008Z,-0.70
2022-11-06T01:42:15.653Z,-0.69
2022-11-06T01:44:44.455Z,-0.60
2022-11-06T01:47:27.986Z,-0.54
2022-11-06T01:50:05.778Z,-0.49
2022-11-06T01:52:35.487Z,-0.47
2022-11-06T01:55:18.936Z,-0.42
2022-11-06T01:57:48.679Z,-0.36
2022-11-06T02:00:18.461Z,-0.29
2022-11-06T02:02:48.292Z,-0.18
2022-11-06T02:05:18.202Z,-0.07
2022-11-06T02:07:47.514Z,0.01
2022-11-06T02:10:16.367Z,0.15
2022-11-06T02:13:17.273Z,0.23
2022-11-06T02:15:55.151Z,0.30
2022-11-06T02:18:50.906Z,0.29
2022-11-06T02:21:49.174Z,0.36
2022-11-06T02:24:25.367Z,0.46
2022-11-06T02:27:23.217Z,0.55
2022-11-06T02:29:58.025Z,0.70
2022-11-06T02:32:40.950Z,0.74
2022-11-06T02:35:31.412Z,0.80
2022-11-06T02:38:06.567Z,0.88
2022-11-06T02:40:40.247Z,0.87
2022-11-06T02:43:10.361Z,0.97
2022-11-06T02:46:07.027Z,1.21
2022-11-06T02:48:43.040Z,1.33
2022-11-06T02:51:16.045Z,1.29
2022-11-06T02:53:46.795Z,1.33
2022-11-06T02:56:29.645Z,1.43
2022-11-06T02:59:06.063Z,1.51
2022-11-06T03:01:44.353Z,1.65
2022-11-06T03:04:21.212Z,1.57
2022-11-06T03:06:57.471Z,1.45
2022-11-06T03:09:32.468Z,1.29
2022-11-06T03:12:26.498Z,1.24
2022-11-06T03:15:01.320Z,1.11
2022-11-06T03:17:45.647Z,0.95
2022-11-06T03:20:39.315Z,0.83
2022-11-06T03:23:49.157Z,0.72
2022-11-06T03:26:27.872Z,0.58
2022-11-06T03:29:09.772Z,0.50
2022-11-06T03:31:54.801Z,0.45
2022-11-06T03:34:38.628Z,0.43
2022-11-06T03:37:18.758Z,0.46
2022-11-06T03:39:53.427Z,0.47
2022-11-06T03:42:29.354Z,0.47
2022-11-06T03:45:06.443Z,0.54
2022-11-06T03:47:41.581Z,0.54
2022-11-06T03:50:27.270Z,0.50
2022-11-06T03:53:10.599Z,0.46
2022-11-06T03:55:46.496Z,0.37
2022-11-06T03:58:21.679Z,0.31
2022-11-06T04:00:54.050Z,0.27
2022-11-06T04:04:00.006Z,0.30
2022-11-06T04:06:36.073Z,0.28
2022-11-06T04:09:26.378Z,0.24
2022-11-06T04:12:16.331Z,0.13
2022-11-06T04:14:50.955Z,0.11
2022-11-06T04:17:23.293Z,0.15
2022-11-06T04:19:58.179Z,0.17
2022-11-06T04:22:45.224Z,0.27
2022-11-06T04:25:48.659Z,0.31
2022-11-06T04:31:33.439Z,0.56
2022-11-06T04:34:23.764Z,0.69
2022-11-06T04:37:08.878Z,0.82
2022-11-06T04:40:01.769Z,0.91
2022-11-06T04:42:43.356Z,0.94
2022-11-06T04:45:18.110Z,0.91
2022-11-06T04:47:47.668Z,0.90
2022-11-06T04:50:20.698Z,0.89
2022-11-06T04:52:50.965Z,0.90
2022-11-06T04:55:22.761Z,0.96
2022-11-06T04:57:51.797Z,0.96
2022-11-06T05:00:21.432Z,0.89
2022-11-06T05:02:50.356Z,0.86
2022-11-06T05:05:19.154Z,0.86
2022-11-06T05:07:47.893Z,0.89
2022-11-06T05:10:16.801Z,0.81
2022-11-06T05:12:48.017Z,0.69
2022-11-06T05:15:16.846Z,0.67
2022-11-06T05:17:45.700Z,0.60
2022-11-06T05:20:14.604Z,0.66
2022-11-06T05:22:59.318Z,0.65
2022-11-06T05:25:32.535Z,0.67
2022-11-06T05:28:02.760Z,0.74
2022-11-06T05:30:31.576Z,0.70
2022-11-06T05:33:00.433Z,0.77
2022-11-06T05:35:29.321Z,0.75
2022-11-06T05:38:04.716Z,0.81
2022-11-06T05:40:33.597Z,0.89
2022-11-06T05:43:02.404Z,0.94
2022-11-06T05:45:31.452Z,1.00
2022-11-06T05:48:00.330Z,0.98
2022-11-06T05:50:29.659Z,0.96
2022-11-06T05:53:05.861Z,0.99
2022-11-06T05:55:34.717Z,1.09
2022-11-06T05:58:03.599Z,1.18
2022-11-06T06:00:33.186Z,1.30
2022-11-06T06:03:03.325Z,1.62
2022-11-06T06:05:32.212Z,1.82
2022-11-06T06:08:00.993Z,1.95
2022-11-06T06:10:29.783Z,2.02
2022-11-06T06:12:58.616Z,2.06
2022-11-06T06:15:27.473Z,2.12
2022-11-06T06:17:58.583Z,2.06
2022-11-06T06:20:27.699Z,2.08
2022-11-06T06:22:57.302Z,2.00
2022-11-06T06:25:27.499Z,2.03
2022-11-06T06:27:57.634Z,1.96
2022-11-06T06:30:26.809Z,1.83
2022-11-06T06:32:55.614Z,1.81
2022-11-06T06:35:24.466Z,1.77
2022-11-06T06:37:55.011Z,1.78
2022-11-06T06:40:27.349Z,1.73
2022-11-06T06:42:59.901Z,1.68
2022-11-06T06:45:28.769Z,1.68
2022-11-06T06:48:03.469Z,1.64
2022-11-06T06:50:32.924Z,1.69
2022-11-06T06:53:01.972Z,1.68
2022-11-06T06:55:30.796Z,1.75
2022-11-06T06:58:00.727Z,1.74
2022-11-06T07:00:31.027Z,1.76
2022-11-06T07:03:00.361Z,1.78
2022-11-06T07:05:29.302Z,1.79
2022-11-06T07:07:58.444Z,1.74
2022-11-06T07:10:27.316Z,1.67
2022-11-06T07:12:56.175Z,1.59
2022-11-06T07:15:25.399Z,1.60
2022-11-06T07:17:54.369Z,1.57
2022-11-06T07:20:23.179Z,1.56
2022-11-06T07:22:52.069Z,1.51
2022-11-06T07:25:20.959Z,1.42
2022-11-06T07:27:49.829Z,1.45
2022-11-06T07:30:18.809Z,1.43
2022-11-06T07:32:47.662Z,1.42
2022-11-06T07:35:16.517Z,1.45
2022-11-06T07:37:45.355Z,1.44
2022-11-06T07:40:15.466Z,1.50
2022-11-06T07:42:44.314Z,1.48
2022-11-06T07:45:17.319Z,1.44
2022-11-06T07:47:46.177Z,1.34
2022-11-06T07:50:14.933Z,1.37
2022-11-06T07:52:43.816Z,1.31
2022-11-06T07:55:12.616Z,1.37
2022-11-06T07:57:41.970Z,1.34
2022-11-06T08:00:12.083Z,1.31
2022-11-06T08:02:45.874Z,1.33
2022-11-06T08:05:15.120Z,1.43
2022-11-06T08:07:43.962Z,1.55
2022-11-06T08:10:12.774Z,1.59
2022-11-06T08:12:41.616Z,1.65
2022-11-06T08:15:10.903Z,1.61
2022-11-06T08:17:39.848Z,1.60
2022-11-06T08:20:09.897Z,1.61
2022-11-06T08:22:38.775Z,1.73
2022-11-06T08:25:08.495Z,1.81
2022-11-06T08:27:38.393Z,1.70
2022-11-06T08:30:07.932Z,1.58
2022-11-06T08:32:36.739Z,1.45
2022-11-06T08:35:06.061Z,1.28
2022-11-06T08:37:34.938Z,1.15
2022-11-06T08:40:05.022Z,1.06
2022-11-06T08:42:33.745Z,0.91
2022-11-06T08:45:02.760Z,0.83
2022-11-06T08:47:31.812Z,0.69
2022-11-06T08:50:00.642Z,0.61
2022-11-06T08:52:34.101Z,0.47
2022-11-06T08:55:03.477Z,0.31
2022-11-06T08:57:32.267Z,0.22
2022-11-06T09:00:01.239Z,0.10
2022-11-06T09:02:34.262Z,-0.02
2022-11-06T09:05:03.317Z,-0.17
2022-11-06T09:07:32.171Z,-0.30
2022-11-06T09:10:00.976Z,-0.47
2022-11-06T09:12:31.361Z,-0.56
2022-11-06T09:15:00.156Z,-0.71
2022-11-06T09:17:28.951Z,-0.75
2022-11-06T09:19:57.731Z,-0.91
2022-11-06T09:22:26.618Z,-0.98
2022-11-06T09:25:03.523Z,-1.07
2022-11-06T09:27:33.136Z,-1.13
2022-11-06T09:30:01.928Z,-1.18
2022-11-06T09:32:31.845Z,-1.26
2022-11-06T09:35:00.980Z,-1.30
2022-11-06T09:37:31.679Z,-1.40
2022-11-06T09:40:05.742Z,-1.37
2022-11-06T09:42:54.429Z,-1.46
2022-11-06T09:45:27.458Z,-1.52
2022-11-06T09:48:24.498Z,-1.54
2022-11-06T09:51:00.926Z,-1.56
2022-11-06T09:53:42.758Z,-1.61
2022-11-06T09:56:14.204Z,-1.67
2022-11-06T09:58:45.368Z,-1.74
2022-11-06T10:01:29.081Z,-1.79
2022-11-06T10:04:00.910Z,-1.79
2022-11-06T10:06:30.581Z,-1.82
2022-11-06T10:09:06.949Z,-1.83
2022-11-06T10:11:56.889Z,-1.83
2022-11-06T10:14:44.020Z,-1.83
2022-11-06T10:17:32.280Z,-1.84
2022-11-06T10:20:20.867Z,-1.81
2022-11-06T10:23:21.176Z,-1.81
2022-11-06T10:26:05.360Z,-1.86
2022-11-06T10:29:09.659Z,-1.89
2022-11-06T10:31:49.320Z,-1.90
2022-11-06T10:34:30.512Z,-1.93
2022-11-06T10:37:09.427Z,-1.97
2022-11-06T10:39:38.914Z,-2.02
2022-11-06T10:42:22.747Z,-2.00
2022-11-06T10:44:57.382Z,-2.02
2022-11-06T10:47:34.723Z,-2.04
2022-11-06T10:50:08.879Z,-2.07
2022-11-06T10:52:56.476Z,-2.09
2022-11-06T10:55:45.888Z,-2.16
2022-11-06T10:58:17.459Z,-2.19
2022-11-06T11:00:48.495Z,-2.23
2022-11-06T11:03:27.720Z,-2.24
2022-11-06T11:05:56.845Z,-2.37
2022-11-06T11:08:35.006Z,-2.40
2022-11-06T11:11:18.678Z,-2.38
2022-11-06T11:13:51.965Z,-2.49
2022-11-06T11:16:27.822Z,-2.50
2022-11-06T11:19:16.840Z,-2.54
2022-11-06T11:22:01.296Z,-2.59
2022-11-06T11:24:30.703Z,-2.69
2022-11-06T11:27:02.716Z,-2.67
2022-11-06T11:29:51.135Z,-2.80
2022-11-06T11:32:22.615Z,-2.76
2022-11-06T11:34:56.994Z,-2.76
2022-11-06T11:37:32.898Z,-2.80
2022-11-06T11:40:40.225Z,-2.79
2022-11-06T11:43:30.032Z,-2.81
2022-11-06T11:46:21.361Z,-2.85
2022-11-06T11:48:50.270Z,-2.90
2022-11-06T11:51:31.058Z,-2.95
2022-11-06T11:54:15.057Z,-3.01
2022-11-06T11:57:08.223Z,-3.04
2022-11-06T12:00:00.935Z,-3.02
2022-11-06T12:02:44.239Z,-3.02
2022-11-06T12:05:22.201Z,-2.98
2022-11-06T12:07:58.889Z,-2.91
2022-11-06T12:10:45.001Z,-2.91
2022-11-06T12:13:24.676Z,-2.81
2022-11-06T12:16:02.311Z,-2.78
2022-11-06T12:18:36.386Z,-2.83
2022-11-06T12:21:29.439Z,-2.84
2022-11-06T12:24:29.419Z,-2.85
2022-11-06T12:27:07.800Z,-2.83
2022-11-06T12:29:41.956Z,-2.82
2022-11-06T12:32:29.377Z,-2.82
2022-11-06T12:35:07.509Z,-2.79
2022-11-06T12:37:43.742Z,-2.77
2022-11-06T12:40:18.325Z,-2.74
2022-11-06T12:42:57.877Z,-2.67
2022-11-06T12:45:39.252Z,-2.60
2022-11-06T12:48:41.842Z,-2.48
2022-11-06T12:51:20.787Z,-2.35
2022-11-06T12:54:27.934Z,-2.27
2022-11-06T12:57:02.467Z,-2.21
2022-11-06T12:59:41.744Z,-2.16
2022-11-06T13:02:33.795Z,-2.08
2022-11-06T13:05:07.114Z,-1.99
2022-11-06T13:08:04.378Z,-1.95
2022-11-06T13:10:39.250Z,-1.92
2022-11-06T13:13:26.020Z,-1.84
2022-11-06T13:15:54.515Z,-1.77
2022-11-06T13:18:31.216Z,-1.81
2022-11-06T13:21:12.292Z,-1.79
2022-11-06T13:23:58.654Z,-1.83
2022-11-06T13:26:40.764Z,-1.73
2022-11-06T13:29:16.715Z,-1.68
2022-11-06T13:31:51.732Z,-1.61
2022-11-06T13:34:28.481Z,-1.48
2022-11-06T13:36:58.123Z,-1.42
2022-11-06T13:39:32.668Z,-1.27
2022-11-06T13:42:03.753Z,-1.16
2022-11-06T13:44:33.196Z,-1.02
2022-11-06T13:47:19.732Z,-0.98
2022-11-06T13:49:51.278Z,-0.87
2022-11-06T13:52:30.451Z,-0.80
2022-11-06T13:55:33.356Z,-0.76
2022-11-06T13:58:51.549Z,-0.70
2022-11-06T14:01:47.002Z,-0.56
2022-11-06T14:04:53.521Z,-0.49
2022-11-06T14:07:24.113Z,-0.49
2022-11-06T14:09:53.708Z,-0.54
2022-11-06T14:12:24.165Z,-0.56
2022-11-06T14:15:15.326Z,-0.61
2022-11-06T14:17:59.433Z,-0.56
2022-11-06T14:20:36.054Z,-0.47
2022-11-06T14:23:30.707Z,-0.39
2022-11-06T14:26:09.759Z,-0.36
2022-11-06T14:28:42.353Z,-0.34
2022-11-06T14:31:14.224Z,-0.31
2022-11-06T14:33:44.498Z,-0.27
2022-11-06T14:36:26.207Z,-0.29
2022-11-06T14:38:55.563Z,-0.22
2022-11-06T14:41:36.505Z,-0.18
2022-11-06T14:44:14.560Z,-0.15
2022-11-06T14:46:51.180Z,-0.13
2022-11-06T14:50:00.084Z,-0.10
2022-11-06T14:52:40.246Z,-0.13
2022-11-06T14:55:09.699Z,-0.05
2022-11-06T14:57:49.241Z,-0.10
2022-11-06T15:01:09.436Z,-0.02
2022-11-06T15:03:55.531Z,-0.02
2022-11-06T15:06:33.259Z,-0.01
2022-11-06T15:09:29.332Z,-0.01
2022-11-06T15:12:00.995Z,0.03
2022-11-06T15:14:29.901Z,0.05
2022-11-06T15:17:07.571Z,0.05
2022-11-06T15:19:42.620Z,0.04
2022-11-06T15:22:20.768Z,0.08
2022-11-06T15:24:58.838Z,0.12
2022-11-06T15:27:49.606Z,0.10
2022-11-06T15:30:20.872Z,0.12
2022-11-06T15:32:55.150Z,0.13
2022-11-06T15:35:31.937Z,0.18
2022-11-06T15:38:14.239Z,0.23
2022-11-06T15:40:44.549Z,0.21
2022-11-06T15:43:23.244Z,0.23
2022-11-06T15:46:13.279Z,0.23
2022-11-06T15:48:42.166Z,0.24
2022-11-06T15:51:29.382Z,0.24
2022-11-06T15:53:58.197Z,0.25
2022-11-06T15:56:32.463Z,0.26
2022-11-06T15:59:17.798Z,0.27
2022-11-06T16:01:50.629Z,0.14
2022-11-06T16:04:24.211Z,0.14
2022-11-06T16:06:56.001Z,0.22
2022-11-06T16:09:27.546Z,0.13
2022-11-06T16:11:57.651Z,-0.02
2022-11-06T16:14:26.609Z,-0.03
2022-11-06T16:16:57.297Z,-0.04
2022-11-06T16:19:34.671Z,-0.03
2022-11-06T16:22:10.025Z,0.02
2022-11-06T16:24:47.669Z,0.07
2022-11-06T16:27:16.995Z,0.14
2022-11-06T16:29:53.661Z,0.16
2022-11-06T16:32:27.096Z,0.23
2022-11-06T16:34:56.000Z,0.28
2022-11-06T16:37:32.155Z,0.34
2022-11-06T16:40:00.915Z,0.38
2022-11-06T16:42:36.711Z,0.41
2022-11-06T16:45:22.282Z,0.41
2022-11-06T16:48:32.706Z,0.42
2022-11-06T16:51:06.880Z,0.46
2022-11-06T16:53:49.380Z,0.46
2022-11-06T16:56:25.136Z,0.51
2022-11-06T16:59:15.229Z,0.53
2022-11-06T17:01:47.628Z,0.59
2022-11-06T17:04:26.926Z,0.65
2022-11-06T17:06:56.860Z,0.62
2022-11-06T17:09:32.533Z,0.78
2022-11-06T17:12:03.153Z,0.82
2022-11-06T17:14:33.485Z,0.70
2022-11-06T17:17:03.475Z,0.84
2022-11-06T17:19:32.624Z,0.87
2022-11-06T17:22:01.471Z,0.90
2022-11-06T17:24:38.020Z,0.95
2022-11-06T17:27:07.909Z,0.92
2022-11-06T17:29:36.944Z,1.00
2022-11-06T17:32:06.083Z,1.06
2022-11-06T17:34:34.865Z,1.07
2022-11-06T17:37:03.820Z,1.12
2022-11-06T17:39:33.548Z,1.14
2022-11-06T17:42:02.540Z,1.14
2022-11-06T17:44:31.337Z,1.12
2022-11-06T17:47:00.119Z,1.11
2022-11-06T17:49:28.917Z,1.03
2022-11-06T17:52:00.913Z,1.01
2022-11-06T17:54:37.638Z,0.95
2022-11-06T17:57:08.874Z,1.01
2022-11-06T17:59:37.700Z,1.08
2022-11-06T18:02:08.152Z,1.15
2022-11-06T18:04:38.858Z,1.21
2022-11-06T18:07:07.987Z,1.32
2022-11-06T18:09:36.883Z,1.43
2022-11-06T18:12:10.955Z,1.55
2022-11-06T18:14:39.764Z,1.72
2022-11-06T18:17:09.762Z,1.81
2022-11-06T18:19:38.583Z,1.86
2022-11-06T18:22:07.354Z,1.89
2022-11-06T18:24:40.409Z,1.94
2022-11-06T18:27:09.163Z,1.93
2022-11-06T18:29:37.974Z,1.92
2022-11-06T18:32:06.861Z,1.93
2022-11-06T18:34:35.553Z,1.98
2022-11-06T18:37:04.398Z,1.97
2022-11-06T18:39:33.120Z,2.02
2022-11-06T18:42:01.917Z,2.04
2022-11-06T18:44:30.789Z,2.02
2022-11-06T18:46:59.540Z,2.01
2022-11-06T18:49:28.303Z,2.08
2022-11-06T18:51:57.082Z,2.10
2022-11-06T18:54:29.410Z,2.13
2022-11-06T18:56:58.175Z,2.09
2022-11-06T18:59:28.441Z,2.10
2022-11-06T19:01:57.704Z,2.09
2022-11-06T19:04:28.531Z,2.14
2022-11-06T19:06:57.537Z,2.11
2022-11-06T19:09:26.332Z,2.11
2022-11-06T19:11:55.093Z,2.14
2022-11-06T19:14:23.902Z,2.11
2022-11-06T19:16:52.870Z,2.02
2022-11-06T19:19:25.508Z,2.03
2022-11-06T19:21:55.025Z,1.96
2022-11-06T19:24:23.821Z,1.93
2022-11-06T19:26:53.049Z,1.88
2022-11-06T19:29:22.044Z,1.88
2022-11-06T19:31:52.381Z,1.81
2022-11-06T19:34:25.882Z,1.83
2022-11-06T19:36:55.439Z,1.81
2022-11-06T19:39:24.932Z,1.81
2022-11-06T19:41:53.791Z,1.78
2022-11-06T19:44:22.733Z,1.77
2022-11-06T19:46:51.486Z,1.74
2022-11-06T19:49:20.581Z,1.76
2022-11-06T19:51:49.649Z,1.79
2022-11-06T19:54:18.487Z,1.77
2022-11-06T19:57:27.322Z,1.73
2022-11-06T19:59:38.082Z,1.74
2022-11-06T20:02:07.971Z,1.78
2022-11-06T20:04:37.491Z,1.77
2022-11-06T20:07:06.532Z,1.80
2022-11-06T20:09:36.203Z,1.82
2022-11-06T20:12:06.064Z,1.83
2022-11-06T20:14:34.916Z,1.81
2022-11-06T20:17:03.642Z,1.85
2022-11-06T20:19:32.427Z,1.88
2022-11-06T20:22:02.948Z,1.82
2022-11-06T20:24:32.961Z,1.80
2022-11-06T20:27:01.728Z,1.83
2022-11-06T20:29:30.500Z,1.88
2022-11-06T20:31:59.242Z,1.86
2022-11-06T20:34:27.968Z,1.89
2022-11-06T20:36:56.842Z,1.91
2022-11-06T20:39:25.635Z,1.89
2022-11-06T20:41:54.421Z,1.91
2022-11-06T20:44:23.275Z,1.95
2022-11-06T20:46:52.073Z,1.98
2022-11-06T20:49:20.892Z,2.02
2022-11-06T20:52:12.785Z,2.02
2022-11-06T20:54:42.402Z,1.99
2022-11-06T20:57:14.518Z,2.07
2022-11-06T20:59:43.429Z,2.09
2022-11-06T21:02:13.045Z,2.11
2022-11-06T21:04:42.167Z,2.02
2022-11-06T21:07:10.910Z,1.97
2022-11-06T21:09:39.792Z,1.96
2022-11-06T21:12:08.747Z,1.78
2022-11-06T21:14:37.531Z,1.84
2022-11-06T21:17:06.346Z,1.79
2022-11-06T21:19:37.157Z,1.75
2022-11-06T21:22:06.009Z,1.75
2022-11-06T21:24:34.980Z,1.74
2022-11-06T21:27:03.726Z,1.73
2022-11-06T21:29:32.555Z,1.68
2022-11-06T21:32:01.298Z,1.69
2022-11-06T21:34:30.256Z,1.73
2022-11-06T21:37:02.528Z,1.72
2022-11-06T21:39:35.800Z,1.72
2022-11-06T21:42:06.293Z,1.68
2022-11-06T21:44:35.098Z,1.82
2022-11-06T21:47:03.930Z,1.82
2022-11-06T21:49:32.747Z,1.77
2022-11-06T21:52:26.448Z,1.92
2022-11-06T21:55:16.317Z,1.99
2022-11-06T21:57:45.374Z,2.02
2022-11-06T22:00:15.443Z,2.07
2022-11-06T22:02:44.586Z,2.07
2022-11-06T22:05:13.508Z,2.10
2022-11-06T22:07:42.324Z,2.15
2022-11-06T22:10:11.357Z,2.23
2022-11-06T22:12:40.978Z,2.29
2022-11-06T22:15:10.123Z,2.31
2022-11-06T22:17:38.917Z,2.34
2022-11-06T22:20:08.514Z,2.32
2022-11-06T22:22:37.196Z,2.40
2022-11-06T22:25:06.649Z,2.38
2022-11-06T22:27:40.545Z,2.43
2022-11-06T22:30:10.371Z,2.43
2022-11-06T22:32:39.182Z,2.40
2022-11-06T22:35:08.278Z,2.43
2022-11-06T22:37:37.009Z,2.42
2022-11-06T22:40:06.417Z,2.39
2022-11-06T22:42:35.604Z,2.41
2022-11-06T22:45:04.793Z,2.31
2022-11-06T22:47:33.765Z,2.43
2022-11-06T22:50:02.558Z,2.45
2022-11-06T22:52:32.055Z,2.35
2022-11-06T22:55:01.001Z,2.44
2022-11-06T22:57:31.682Z,2.44
2022-11-06T23:00:00.535Z,2.42
2022-11-06T23:02:29.852Z,2.42
2022-11-06T23:04:58.932Z,2.38
2022-11-06T23:07:27.694Z,2.40
2022-11-06T23:09:56.495Z,2.35
2022-11-06T23:12:25.220Z,2.27
2022-11-06T23:14:53.989Z,2.24
2022-11-06T23:17:22.698Z,2.25
2022-11-06T23:19:52.088Z,2.20
2022-11-06T23:22:39.263Z,2.08
2022-11-06T23:25:11.809Z,2.15
2022-11-06T23:27:48.550Z,2.16
2022-11-06T23:30:18.962Z,2.13
2022-11-06T23:32:48.002Z,2.12
2022-11-06T23:35:17.189Z,2.12
2022-11-06T23:37:46.586Z,2.06
2022-11-06T23:40:15.505Z,2.05
2022-11-06T23:42:44.660Z,2.06
2022-11-06T23:45:31.892Z,2.03
2022-11-06T23:48:05.930Z,2.05
2022-11-06T23:50:37.276Z,2.02
2022-11-06T23:53:06.176Z,2.03
2022-11-06T23:55:34.984Z,2.00
2022-11-06T23:58:03.812Z,1.97
